KFHRPAKT

Guest
Details From KFHR - Friday Harbor
To PAKT - Ketchikan Intl
Flight Number -
Tags Generated
Created
Modified
Stats Distance 521 nm / 965 km
Max Altitude 0 ft / 0 m
Waypoints 3
Social Downloads 0
Likes 0
Share VATSIM

Download

Looking for another format? Having issues loading an existing format? Contact us
Advertisement - Login to hide

Notes

Generated

Route

KFHR GRANA PAKT

ID Type Via Altitude Latitude Longitude Leg Dist Tot Dist Heading (true) Name
O KFHR APT - 0 ft / 0 m 48.52662˚ -123.02473˚ - 0 nm - -
GRANA FIX - 0 ft / 0 m 55.34823˚ -131.70116˚ 519 nm 519 nm 325° / 318° -
O PAKT APT - 0 ft / 0 m 55.36288˚ -131.72634˚ 1 nm 521 nm 316° / 316° -

Altitude Profile

Advertisement - Login to hide

Weather


0- 5 10 15 20 25 30 35+ Temperature / ° C

Clouds and Precipitation
Forecast for 2018-05-27 00:00 UTC. Updated 5 hours ago

Ground ~20,000 ft ~40,000 ft Winds

KFHR

Details ICAO KFHR (FRD)
Name FRIDAY HARBOR
Region United States
Timezone America/Los_Angeles (UTC-7.0)
Stats Elevation 113 ft / 34 m (AMSL)
Location 48.521966° -123.024368°
Runways 1
Magnetic Variation 16.005° E

METAR

KFHR 270353Z AUTO 22008KT 200V260 10SM OVC100 12/06 A3019 RMK AO2 SLP224 T01220061 TSNO

Decode

TAF

Not found

Departure Runways

ID Width Length Bearing (true) Bearing (mag) Surface Threshold Offset Overrun Length
16 75 ft / 23 m 3,402 ft / 1,037 m 177.06° 161.05° Asphalt 0 ft / 0 m 0 ft / 0 m
34 75 ft / 23 m 3,402 ft / 1,037 m 357.06° 341.05° Asphalt 0 ft / 0 m 0 ft / 0 m

PAKT

Details ICAO PAKT (KTN)
Name KETCHIKAN INTL
Region USA (Alaska)
Timezone Unknown (UTC+0.0)
Stats Elevation 88 ft / 27 m (AMSL)
Location 55.355545° -131.713737°
Runways 1
Magnetic Variation 18.427° E

METAR

PAKT 270353Z 13014G22KT 7SM -RA SCT010 BKN018 OVC030 10/08 A2979

Decode

TAF

TAF PAKT 262332Z 2700/2724 13015G20KT 6SM RA BR SCT010 OVC020 WS020/14040KT TEMPO 2700/2703 4SM -RA BR BKN010 OVC020 FM270800 14010KT 5SM -RA BR OVC018 FM272000 13008KT 6SM -RA BR OVC025 AMD LTD TO CLD VIS AND WIND 2706/2715

Decode

Destination Runways

ID Width Length Bearing (true) Bearing (mag) Surface Threshold Offset Overrun Length
11 150 ft / 46 m 7,485 ft / 2,281 m 135.66° 117.23° Asphalt 0 ft / 0 m 200 ft / 61 m
29 150 ft / 46 m 7,485 ft / 2,281 m 315.68° 297.25° Asphalt 0 ft / 0 m 100 ft / 30 m

Approach Navaids

Runway Type Ident Frequency Range Bearing (true) Bearing (mag) Slope Elevation
11 Localiser IECH 109.30 MHz 18 nm / 33 km 135.69° 117.26° - 66 ft / 20 m (AMSL)
11 Glidescope IECH 109.30 MHz 10 nm / 19 km 135.67° 117.25° 3.61° 76 ft / 23 m (AMSL)
11 DME IECH 109.30 MHz 18 nm / 33 km - - - 98 ft / 30 m (AMSL)

Popular Alternatives